createdAt,value
2019-05-21T00:03:02.502Z,11.20
2019-05-21T00:07:14.249Z,10.90
2019-05-21T00:11:26.044Z,10.80
2019-05-21T00:15:37.983Z,10.80
2019-05-21T00:19:49.911Z,11.00
2019-05-21T00:24:01.567Z,11.10
2019-05-21T00:28:40.360Z,11.20
2019-05-21T00:33:27.176Z,11.20
2019-05-21T00:38:14.200Z,11.00
2019-05-21T00:42:35.136Z,10.90
2019-05-21T00:46:47.793Z,10.80
2019-05-21T00:50:59.471Z,10.70
2019-05-21T00:55:11.336Z,10.60
2019-05-21T00:59:23.330Z,10.70
2019-05-21T01:03:35.189Z,10.80
2019-05-21T01:07:47.085Z,10.80
2019-05-21T01:11:58.683Z,10.90
2019-05-21T01:16:10.421Z,10.90
2019-05-21T01:20:22.227Z,10.90
2019-05-21T01:24:34.083Z,10.70
2019-05-21T01:28:46.039Z,10.60
2019-05-21T01:32:57.899Z,10.50
2019-05-21T01:37:09.725Z,10.40
2019-05-21T01:41:21.376Z,10.40
2019-05-21T01:45:33.198Z,10.30
2019-05-21T01:49:44.993Z,10.20
2019-05-21T01:53:56.797Z,10.10
2019-05-21T01:58:09.493Z,10.00
2019-05-21T02:02:21.336Z,10.20
2019-05-21T02:06:33.233Z,10.30
2019-05-21T02:10:45.022Z,10.20
2019-05-21T02:14:56.931Z,10.00
2019-05-21T02:19:08.838Z,10.00
2019-05-21T02:23:20.816Z,10.10
2019-05-21T02:27:32.696Z,10.20
2019-05-21T02:31:44.338Z,10.00
2019-05-21T02:35:56.017Z,9.80
2019-05-21T02:40:08.137Z,9.60
2019-05-21T02:44:19.941Z,9.70
2019-05-21T02:48:31.742Z,9.80
2019-05-21T02:52:43.659Z,9.80
2019-05-21T02:56:55.462Z,9.60
2019-05-21T03:01:32.291Z,9.70
2019-05-21T03:05:44.267Z,9.70
2019-05-21T03:09:56.165Z,9.70
2019-05-21T03:14:07.765Z,9.70
2019-05-21T03:18:19.632Z,9.70
2019-05-21T03:22:31.444Z,9.60
2019-05-21T03:26:43.346Z,9.50
2019-05-21T03:30:55.197Z,9.50
2019-05-21T03:35:07.363Z,9.70
2019-05-21T03:39:19.682Z,9.70
2019-05-21T03:43:31.812Z,9.60
2019-05-21T03:47:43.693Z,9.50
2019-05-21T03:51:55.493Z,9.50
2019-05-21T03:56:07.297Z,9.50
2019-05-21T04:00:19.089Z,9.60
2019-05-21T04:04:30.830Z,9.60
2019-05-21T04:08:42.604Z,9.60
2019-05-21T04:13:10.335Z,9.70
2019-05-21T04:17:38.092Z,9.70
2019-05-21T04:21:49.808Z,9.60
2019-05-21T04:26:01.652Z,9.50
2019-05-21T04:30:14.697Z,9.50
2019-05-21T04:34:26.556Z,9.40
2019-05-21T04:38:38.395Z,9.30
2019-05-21T04:42:49.997Z,9.40
2019-05-21T04:47:01.770Z,9.30
2019-05-21T04:51:14.251Z,9.30
2019-05-21T04:55:26.081Z,9.30
2019-05-21T04:59:37.896Z,9.30
2019-05-21T05:03:49.692Z,9.40
2019-05-21T05:08:01.549Z,9.30
2019-05-21T05:12:13.106Z,9.30
2019-05-21T05:16:24.780Z,9.40
2019-05-21T05:20:36.684Z,9.50
2019-05-21T05:24:48.547Z,9.60
2019-05-21T05:29:00.301Z,9.70
2019-05-21T05:33:11.896Z,9.90
2019-05-21T05:37:23.656Z,10.10
2019-05-21T05:41:35.491Z,10.20
2019-05-21T05:45:47.296Z,10.20
2019-05-21T05:50:01.201Z,10.20
2019-05-21T05:54:13.050Z,10.20
2019-05-21T05:58:24.883Z,10.20
2019-05-21T06:02:36.779Z,10.30
2019-05-21T06:06:48.665Z,10.20
2019-05-21T06:11:00.544Z,10.20
2019-05-21T06:15:12.872Z,10.30
2019-05-21T06:19:24.897Z,10.40
2019-05-21T06:23:36.841Z,10.50
2019-05-21T06:27:48.699Z,10.60
2019-05-21T06:32:00.310Z,10.70
2019-05-21T06:36:11.974Z,10.80
2019-05-21T06:40:24.173Z,11.10
2019-05-21T06:44:36.001Z,11.30
2019-05-21T06:48:47.799Z,11.30
2019-05-21T06:52:59.598Z,11.50
2019-05-21T06:57:11.413Z,11.60
2019-05-21T07:01:28.731Z,11.70
2019-05-21T07:05:36.514Z,11.90
2019-05-21T07:09:48.237Z,12.00
2019-05-21T07:14:00.121Z,12.10
2019-05-21T07:18:12.500Z,12.10
2019-05-21T07:22:24.518Z,12.20
2019-05-21T07:26:36.429Z,12.30
2019-05-21T07:30:49.800Z,12.40
2019-05-21T07:35:01.671Z,12.50
2019-05-21T07:39:14.413Z,12.50
2019-05-21T07:43:26.396Z,12.60
2019-05-21T07:47:38.236Z,12.80
2019-05-21T07:51:50.041Z,12.90
2019-05-21T07:56:01.836Z,13.00
2019-05-21T08:00:15.045Z,13.20
2019-05-21T08:04:26.777Z,13.50
2019-05-21T08:08:38.574Z,13.90
2019-05-21T08:12:50.494Z,14.20
2019-05-21T08:17:02.434Z,14.30
2019-05-21T08:21:14.385Z,14.40
2019-05-21T08:25:26.242Z,14.70
2019-05-21T08:29:38.929Z,15.10
2019-05-21T08:33:50.710Z,15.40
2019-05-21T08:38:06.627Z,15.70
2019-05-21T08:42:16.889Z,16.10
2019-05-21T08:46:30.056Z,16.40
2019-05-21T08:50:42.331Z,16.40
2019-05-21T08:54:56.351Z,16.60
2019-05-21T08:59:08.786Z,17.10
2019-05-21T09:03:20.394Z,17.20
2019-05-21T09:07:32.065Z,17.30
2019-05-21T09:11:43.885Z,17.60
2019-05-21T09:15:55.790Z,17.90
2019-05-21T09:20:08.450Z,18.00
2019-05-21T09:24:20.158Z,18.30
2019-05-21T09:28:32.016Z,18.70
2019-05-21T09:32:43.834Z,18.80
2019-05-21T09:36:55.972Z,18.80
2019-05-21T09:41:07.828Z,19.00
2019-05-21T09:45:19.637Z,19.00
2019-05-21T09:49:31.302Z,19.00
2019-05-21T09:53:43.018Z,18.70
2019-05-21T09:58:04.302Z,19.10
2019-05-21T10:02:19.704Z,19.30
2019-05-21T10:06:33.402Z,19.00
2019-05-21T10:10:45.080Z,19.10
2019-05-21T10:14:56.869Z,19.30
2019-05-21T10:19:08.738Z,19.40
2019-05-21T10:23:20.687Z,19.20
2019-05-21T10:27:32.441Z,19.50
2019-05-21T10:31:44.166Z,19.60
2019-05-21T10:35:55.993Z,19.90
2019-05-21T10:40:09.085Z,20.10
2019-05-21T10:44:21.025Z,20.30
2019-05-21T10:48:32.634Z,20.50
2019-05-21T10:52:44.457Z,20.60
2019-05-21T10:56:56.224Z,20.70
2019-05-21T11:01:15.177Z,20.80
2019-05-21T11:05:34.942Z,20.80
2019-05-21T11:09:46.663Z,20.30
2019-05-21T11:13:58.482Z,19.80
2019-05-21T11:18:11.698Z,20.30
2019-05-21T11:22:23.980Z,19.60
2019-05-21T11:26:35.945Z,19.80
2019-05-21T11:30:47.630Z,19.50
2019-05-21T11:34:59.410Z,19.60
2019-05-21T11:39:11.877Z,19.90
2019-05-21T11:43:23.648Z,19.50
2019-05-21T11:47:35.442Z,19.90
2019-05-21T11:51:47.065Z,19.90
2019-05-21T11:55:58.907Z,19.70
2019-05-21T12:00:11.369Z,19.30
2019-05-21T12:04:22.990Z,19.00
2019-05-21T12:08:34.757Z,19.10
2019-05-21T12:12:46.567Z,19.40
2019-05-21T12:16:58.352Z,19.70
2019-05-21T12:21:10.257Z,19.90
2019-05-21T12:25:21.925Z,20.20
2019-05-21T12:29:34.453Z,20.00
2019-05-21T12:33:46.085Z,19.80
2019-05-21T12:37:57.755Z,19.50
2019-05-21T12:42:09.612Z,19.60
2019-05-21T12:46:21.374Z,19.70
2019-05-21T12:50:33.200Z,19.80
2019-05-21T12:54:44.880Z,19.90
2019-05-21T12:58:56.709Z,19.80
2019-05-21T13:03:08.559Z,19.60
2019-05-21T13:07:20.454Z,19.60
2019-05-21T13:11:33.936Z,19.90
2019-05-21T13:15:45.816Z,20.10
2019-05-21T13:19:57.642Z,19.90
2019-05-21T13:24:09.694Z,20.20
2019-05-21T13:28:22.684Z,20.10
2019-05-21T13:32:34.393Z,20.00
2019-05-21T13:36:46.160Z,20.00
2019-05-21T13:40:58.968Z,19.60
2019-05-21T13:45:12.120Z,19.70
2019-05-21T13:49:23.918Z,19.60
2019-05-21T13:53:35.599Z,19.80
2019-05-21T13:57:47.410Z,19.70
2019-05-21T14:01:59.274Z,19.70
2019-05-21T14:06:11.220Z,19.40
2019-05-21T14:10:23.019Z,19.50
2019-05-21T14:14:34.628Z,19.50
2019-05-21T14:18:46.307Z,19.90
2019-05-21T14:22:58.277Z,20.00
2019-05-21T14:27:10.130Z,19.80
2019-05-21T14:31:21.923Z,20.20
2019-05-21T14:35:33.786Z,20.10
2019-05-21T14:39:45.445Z,20.10
2019-05-21T14:43:57.121Z,20.00
2019-05-21T14:48:09.026Z,19.90
2019-05-21T14:52:20.637Z,19.90
2019-05-21T14:56:33.457Z,19.70
2019-05-21T15:00:45.155Z,19.90
2019-05-21T15:04:57.051Z,19.80
2019-05-21T15:09:08.953Z,20.00
2019-05-21T15:13:20.753Z,19.80
2019-05-21T15:17:32.552Z,19.80
2019-05-21T15:21:48.654Z,20.00
2019-05-21T15:26:00.559Z,20.20
2019-05-21T15:30:12.700Z,20.00
2019-05-21T15:34:24.618Z,20.10
2019-05-21T15:38:49.349Z,20.00
2019-05-21T15:42:53.113Z,20.10
2019-05-21T15:47:03.265Z,20.00
2019-05-21T15:51:15.253Z,19.90
2019-05-21T15:55:27.065Z,19.70
2019-05-21T15:59:38.858Z,19.80
2019-05-21T16:03:50.474Z,19.60
2019-05-21T16:08:02.304Z,19.80
2019-05-21T16:12:14.168Z,19.80
2019-05-21T16:16:26.062Z,19.90
2019-05-21T16:20:37.860Z,19.90
2019-05-21T16:24:49.585Z,20.10
2019-05-21T16:29:01.340Z,20.10
2019-05-21T16:33:13.052Z,20.20
2019-05-21T16:37:25.009Z,20.20
2019-05-21T16:41:44.662Z,20.40
2019-05-21T16:45:50.505Z,20.60
2019-05-21T16:50:02.201Z,20.80
2019-05-21T16:54:13.985Z,20.90
2019-05-21T16:58:25.801Z,21.10
2019-05-21T17:02:37.605Z,21.00
2019-05-21T17:06:50.309Z,20.90
2019-05-21T17:11:02.206Z,21.00
2019-05-21T17:15:14.366Z,20.90
2019-05-21T17:19:26.797Z,20.80
2019-05-21T17:23:38.436Z,20.90
2019-05-21T17:27:50.314Z,21.00
2019-05-21T17:32:02.153Z,20.90
2019-05-21T17:36:14.112Z,20.70
2019-05-21T17:40:26.120Z,20.80
2019-05-21T17:44:37.974Z,20.70
2019-05-21T17:48:49.999Z,20.60
2019-05-21T17:53:01.785Z,20.50
2019-05-21T17:57:13.589Z,20.30
2019-05-21T18:01:25.583Z,20.40
2019-05-21T18:05:37.280Z,20.30
2019-05-21T18:09:50.009Z,20.30
2019-05-21T18:14:02.064Z,20.30
2019-05-21T18:18:14.828Z,20.10
2019-05-21T18:22:26.890Z,20.00
2019-05-21T18:26:38.764Z,19.80
2019-05-21T18:30:50.516Z,19.60
2019-05-21T18:35:02.344Z,19.40
2019-05-21T18:39:14.142Z,19.10
2019-05-21T18:43:26.019Z,19.10
2019-05-21T18:47:39.963Z,18.90
2019-05-21T18:51:51.794Z,18.80
2019-05-21T18:56:03.608Z,18.50
2019-05-21T19:00:15.692Z,18.30
2019-05-21T19:04:27.320Z,18.10
2019-05-21T19:08:39.005Z,18.00
2019-05-21T19:12:51.008Z,18.10
2019-05-21T19:17:04.439Z,18.00
2019-05-21T19:21:16.253Z,17.70
2019-05-21T19:25:28.166Z,17.60
2019-05-21T19:29:40.116Z,17.50
2019-05-21T19:33:56.137Z,17.40
2019-05-21T19:38:08.196Z,17.30
2019-05-21T19:42:24.053Z,17.00
2019-05-21T19:46:37.131Z,16.90
2019-05-21T19:50:48.888Z,16.80
2019-05-21T19:55:00.718Z,16.60
2019-05-21T19:59:12.502Z,16.50
2019-05-21T20:03:25.110Z,16.40
2019-05-21T20:07:37.933Z,16.40
2019-05-21T20:11:49.832Z,16.10
2019-05-21T20:16:03.275Z,15.90
2019-05-21T20:20:16.714Z,15.80
2019-05-21T20:24:29.212Z,15.80
2019-05-21T20:28:41.262Z,15.60
2019-05-21T20:32:54.484Z,15.20
2019-05-21T20:37:07.705Z,15.20
2019-05-21T20:41:19.714Z,15.10
2019-05-21T20:45:33.208Z,14.90
2019-05-21T20:49:46.369Z,14.70
2019-05-21T20:53:59.131Z,14.80
2019-05-21T20:58:10.955Z,14.80
2019-05-21T21:02:23.716Z,14.70
2019-05-21T21:06:36.378Z,14.60
2019-05-21T21:10:48.260Z,14.40
2019-05-21T21:15:00.877Z,14.30
2019-05-21T21:19:13.089Z,14.50
2019-05-21T21:23:26.743Z,14.50
2019-05-21T21:27:39.147Z,14.20
2019-05-21T21:31:50.943Z,13.90
2019-05-21T21:36:03.456Z,13.80
2019-05-21T21:40:17.473Z,13.90
2019-05-21T21:44:34.237Z,13.80
2019-05-21T21:48:45.443Z,13.90
2019-05-21T21:52:57.085Z,13.80
2019-05-21T21:57:09.836Z,13.80
2019-05-21T22:01:50.430Z,13.70
2019-05-21T22:06:08.113Z,13.70
2019-05-21T22:10:24.815Z,13.60
2019-05-21T22:14:49.752Z,13.50
2019-05-21T22:18:50.742Z,13.30
2019-05-21T22:23:03.167Z,13.10
2019-05-21T22:27:15.415Z,12.90
2019-05-21T22:31:27.316Z,12.80
2019-05-21T22:35:39.170Z,12.80
2019-05-21T22:39:51.166Z,12.70
2019-05-21T22:44:02.981Z,12.60
2019-05-21T22:48:14.797Z,12.50
2019-05-21T22:52:26.389Z,12.60
2019-05-21T22:56:39.253Z,12.50
2019-05-21T23:00:53.142Z,12.50
2019-05-21T23:05:05.403Z,12.40
2019-05-21T23:09:17.356Z,12.40
2019-05-21T23:13:29.164Z,12.40
2019-05-21T23:17:40.996Z,12.40
2019-05-21T23:21:53.780Z,12.40
2019-05-21T23:26:06.536Z,12.30
2019-05-21T23:30:20.793Z,12.20
2019-05-21T23:34:32.978Z,12.30
2019-05-21T23:38:45.368Z,12.40
2019-05-21T23:42:57.371Z,12.40
2019-05-21T23:47:13.592Z,12.40
2019-05-21T23:51:25.569Z,12.20
2019-05-21T23:55:38.484Z,12.30
2019-05-21T23:59:51.897Z,12.30
